createdAt,value
2018-07-15T00:00:19.768Z,13.63
2018-07-15T00:02:53.181Z,13.58
2018-07-15T00:05:26.580Z,13.57
2018-07-15T00:08:00.044Z,13.53
2018-07-15T00:10:42.707Z,13.50
2018-07-15T00:13:16.167Z,13.46
2018-07-15T00:15:49.618Z,13.42
2018-07-15T00:18:23.031Z,13.40
2018-07-15T00:20:56.416Z,13.38
2018-07-15T00:23:29.811Z,13.34
2018-07-15T00:26:03.237Z,13.32
2018-07-15T00:28:36.618Z,13.28
2018-07-15T00:31:10.041Z,13.23
2018-07-15T00:33:43.434Z,13.20
2018-07-15T00:36:16.899Z,13.17
2018-07-15T00:38:50.279Z,13.12
2018-07-15T00:41:23.811Z,13.08
2018-07-15T00:43:57.191Z,13.03
2018-07-15T00:46:30.601Z,12.97
2018-07-15T00:49:03.974Z,12.93
2018-07-15T00:51:37.384Z,12.90
2018-07-15T00:54:10.803Z,12.87
2018-07-15T00:56:44.259Z,12.89
2018-07-15T00:59:17.642Z,12.86
2018-07-15T01:01:51.049Z,12.87
2018-07-15T01:04:24.463Z,12.85
2018-07-15T01:06:57.861Z,12.82
2018-07-15T01:09:31.335Z,12.78
2018-07-15T01:12:04.785Z,12.74
2018-07-15T01:14:38.303Z,12.66
2018-07-15T01:17:11.754Z,12.61
2018-07-15T01:19:45.135Z,12.58
2018-07-15T01:22:18.536Z,12.55
2018-07-15T01:24:51.887Z,12.53
2018-07-15T01:27:25.508Z,12.55
2018-07-15T01:29:58.899Z,12.56
2018-07-15T01:32:32.295Z,12.57
2018-07-15T01:35:05.672Z,12.55
2018-07-15T01:37:39.059Z,12.47
2018-07-15T01:40:12.440Z,12.36
2018-07-15T01:42:46.097Z,12.24
2018-07-15T01:45:19.455Z,12.18
2018-07-15T01:47:52.859Z,12.12
2018-07-15T01:50:26.277Z,12.10
2018-07-15T01:52:59.736Z,12.08
2018-07-15T01:55:33.236Z,12.03
2018-07-15T01:58:06.624Z,12.01
2018-07-15T02:00:39.992Z,12.00
2018-07-15T02:03:13.385Z,12.01
2018-07-15T02:05:46.815Z,11.98
2018-07-15T02:08:20.232Z,11.98
2018-07-15T02:10:53.600Z,11.96
2018-07-15T02:13:26.991Z,11.91
2018-07-15T02:16:00.400Z,11.85
2018-07-15T02:18:33.820Z,11.83
2018-07-15T02:21:07.310Z,11.82
2018-07-15T02:23:40.772Z,11.81
2018-07-15T02:26:14.245Z,11.81
2018-07-15T02:28:47.700Z,11.77
2018-07-15T02:31:21.098Z,11.71
2018-07-15T02:33:54.541Z,11.64
2018-07-15T02:36:27.968Z,11.60
2018-07-15T02:39:02.425Z,11.61
2018-07-15T02:41:35.791Z,11.61
2018-07-15T02:44:09.280Z,11.57
2018-07-15T02:46:42.665Z,11.53
2018-07-15T02:49:16.171Z,11.49
2018-07-15T02:51:49.652Z,11.44
2018-07-15T02:54:23.127Z,11.38
2018-07-15T02:56:56.523Z,11.38
2018-07-15T02:59:29.948Z,11.34
2018-07-15T03:02:03.469Z,11.36
2018-07-15T03:04:36.872Z,11.35
2018-07-15T03:07:10.252Z,11.34
2018-07-15T03:09:43.732Z,11.34
2018-07-15T03:12:17.388Z,11.29
2018-07-15T03:14:50.817Z,11.28
2018-07-15T03:17:24.329Z,11.22
2018-07-15T03:19:57.677Z,11.20
2018-07-15T03:22:31.171Z,11.18
2018-07-15T03:25:04.600Z,11.20
2018-07-15T03:27:38.059Z,11.20
2018-07-15T03:30:11.505Z,11.15
2018-07-15T03:32:44.936Z,11.09
2018-07-15T03:35:18.414Z,11.04
2018-07-15T03:37:52.043Z,10.96
2018-07-15T03:40:25.502Z,10.93
2018-07-15T03:42:58.902Z,10.91
2018-07-15T03:45:32.309Z,10.88
2018-07-15T03:48:05.851Z,10.89
2018-07-15T03:50:39.219Z,10.93
2018-07-15T03:53:12.627Z,10.93
2018-07-15T03:55:46.007Z,10.99
2018-07-15T03:58:19.417Z,11.01
2018-07-15T04:00:52.875Z,11.03
2018-07-15T04:03:26.245Z,11.10
2018-07-15T04:05:59.657Z,11.17
2018-07-15T04:08:33.118Z,11.30
2018-07-15T04:11:06.514Z,11.34
2018-07-15T04:13:39.928Z,11.39
2018-07-15T04:16:13.307Z,11.45
2018-07-15T04:18:46.755Z,11.50
2018-07-15T04:21:20.128Z,11.57
2018-07-15T04:23:53.551Z,11.68
2018-07-15T04:26:26.951Z,11.86
2018-07-15T04:29:00.344Z,12.03
2018-07-15T04:31:33.736Z,12.20
2018-07-15T04:34:07.136Z,12.32
2018-07-15T04:36:40.487Z,12.46
2018-07-15T04:39:13.897Z,12.61
2018-07-15T04:41:47.291Z,12.77
2018-07-15T04:44:20.668Z,12.88
2018-07-15T04:46:54.039Z,13.00
2018-07-15T04:49:27.432Z,13.14
2018-07-15T04:52:00.846Z,13.28
2018-07-15T04:54:34.237Z,13.46
2018-07-15T04:57:07.639Z,13.66
2018-07-15T04:59:41.099Z,13.79
2018-07-15T05:02:14.449Z,14.01
2018-07-15T05:04:47.896Z,14.15
2018-07-15T05:07:21.342Z,14.27
2018-07-15T05:09:54.739Z,14.39
2018-07-15T05:12:28.173Z,14.54
2018-07-15T05:15:01.582Z,14.73
2018-07-15T05:17:35.011Z,14.96
2018-07-15T05:20:08.417Z,15.12
2018-07-15T05:22:41.828Z,15.32
2018-07-15T05:25:15.306Z,15.52
2018-07-15T05:27:48.672Z,15.69
2018-07-15T05:30:22.076Z,15.86
2018-07-15T05:32:55.439Z,16.07
2018-07-15T05:35:28.874Z,16.31
2018-07-15T05:38:02.249Z,16.65
2018-07-15T05:40:35.698Z,17.04
2018-07-15T05:43:09.220Z,17.33
2018-07-15T05:45:42.641Z,17.51
2018-07-15T05:48:16.081Z,17.64
2018-07-15T05:50:49.489Z,17.71
2018-07-15T05:53:22.869Z,17.75
2018-07-15T05:55:56.272Z,17.91
2018-07-15T05:58:29.639Z,18.15
2018-07-15T06:01:03.055Z,18.37
2018-07-15T06:03:36.478Z,18.55
2018-07-15T06:06:09.922Z,18.73
2018-07-15T06:08:43.292Z,18.93
2018-07-15T06:11:16.688Z,18.97
2018-07-15T06:13:50.140Z,19.12
2018-07-15T06:16:23.607Z,19.27
2018-07-15T06:18:57.012Z,19.45
2018-07-15T06:21:30.512Z,19.62
2018-07-15T06:24:03.913Z,19.70
2018-07-15T06:26:37.389Z,19.87
2018-07-15T06:29:10.773Z,19.98
2018-07-15T06:31:44.190Z,20.09
2018-07-15T06:34:17.594Z,20.34
2018-07-15T06:36:50.978Z,20.55
2018-07-15T06:39:24.425Z,20.67
2018-07-15T06:41:57.911Z,20.74
2018-07-15T06:44:31.292Z,20.80
2018-07-15T06:47:04.716Z,20.92
2018-07-15T06:49:38.117Z,21.00
2018-07-15T06:52:11.518Z,21.12
2018-07-15T06:54:44.912Z,21.21
2018-07-15T06:57:18.333Z,21.18
2018-07-15T06:59:51.724Z,21.24
2018-07-15T07:02:25.189Z,21.32
2018-07-15T07:04:58.571Z,21.31
2018-07-15T07:07:32.022Z,21.44
2018-07-15T07:10:05.443Z,21.52
2018-07-15T07:12:39.534Z,21.68
2018-07-15T07:15:13.245Z,21.89
2018-07-15T07:17:46.961Z,21.65
2018-07-15T07:20:20.814Z,21.79
2018-07-15T07:22:54.297Z,21.66
2018-07-15T07:25:27.739Z,21.86
2018-07-15T07:28:01.144Z,21.89
2018-07-15T07:30:34.591Z,22.11
2018-07-15T07:33:08.011Z,22.23
2018-07-15T07:35:41.481Z,22.25
2018-07-15T07:38:14.890Z,22.31
2018-07-15T07:40:48.290Z,22.40
2018-07-15T07:43:21.669Z,22.55
2018-07-15T07:45:55.099Z,22.72
2018-07-15T07:48:28.475Z,23.21
2018-07-15T07:51:02.013Z,24.02
2018-07-15T07:53:35.428Z,23.91
2018-07-15T07:56:09.877Z,23.75
2018-07-15T07:58:43.259Z,23.64
2018-07-15T08:01:16.643Z,23.48
2018-07-15T08:03:50.063Z,23.36
2018-07-15T08:06:23.496Z,23.46
2018-07-15T08:08:56.900Z,23.37
2018-07-15T08:11:30.328Z,23.25
2018-07-15T08:14:04.584Z,22.85
2018-07-15T08:16:39.223Z,22.72
2018-07-15T08:19:13.380Z,22.86
2018-07-15T08:21:46.883Z,23.14
2018-07-15T08:24:20.273Z,23.04
2018-07-15T08:26:53.710Z,23.21
2018-07-15T08:29:27.068Z,23.32
2018-07-15T08:32:01.536Z,23.39
2018-07-15T08:34:35.105Z,23.32
2018-07-15T08:37:08.515Z,23.09
2018-07-15T08:39:41.897Z,22.78
2018-07-15T08:42:15.355Z,22.84
2018-07-15T08:44:48.834Z,22.93
2018-07-15T08:47:22.352Z,23.20
2018-07-15T08:49:55.731Z,23.42
2018-07-15T08:52:29.169Z,23.66
2018-07-15T08:55:02.660Z,23.95
2018-07-15T08:57:36.116Z,23.91
2018-07-15T09:00:09.539Z,23.89
2018-07-15T09:02:43.005Z,24.04
2018-07-15T09:05:16.401Z,24.26
2018-07-15T09:07:49.808Z,24.50
2018-07-15T09:10:23.230Z,24.68
2018-07-15T09:12:56.636Z,24.52
2018-07-15T09:15:30.054Z,24.24
2018-07-15T09:18:03.498Z,23.88
2018-07-15T09:20:37.033Z,23.95
2018-07-15T09:23:10.440Z,24.08
2018-07-15T09:25:43.841Z,24.22
2018-07-15T09:28:17.272Z,24.14
2018-07-15T09:30:50.698Z,24.14
2018-07-15T09:33:24.137Z,24.23
2018-07-15T09:35:57.594Z,24.31
2018-07-15T09:38:31.056Z,24.33
2018-07-15T09:41:04.520Z,24.41
2018-07-15T09:43:38.373Z,24.58
2018-07-15T09:46:13.475Z,24.58
2018-07-15T09:48:46.910Z,24.41
2018-07-15T09:51:20.311Z,24.58
2018-07-15T09:53:53.761Z,24.74
2018-07-15T09:56:27.223Z,24.73
2018-07-15T09:59:01.044Z,24.91
2018-07-15T10:01:34.423Z,24.93
2018-07-15T10:04:07.875Z,25.13
2018-07-15T10:06:41.259Z,24.71
2018-07-15T10:09:14.708Z,24.67
2018-07-15T10:11:48.147Z,24.61
2018-07-15T10:14:21.568Z,24.78
2018-07-15T10:16:55.384Z,25.12
2018-07-15T10:19:29.127Z,25.46
2018-07-15T10:22:02.590Z,25.59
2018-07-15T10:24:36.299Z,25.57
2018-07-15T10:27:15.185Z,25.72
2018-07-15T10:29:48.735Z,25.69
2018-07-15T10:32:22.675Z,25.49
2018-07-15T10:34:56.120Z,25.46
2018-07-15T10:37:30.905Z,25.59
2018-07-15T10:40:05.741Z,25.62
2018-07-15T10:42:39.711Z,25.38
2018-07-15T10:45:13.603Z,25.38
2018-07-15T10:47:47.162Z,25.49
2018-07-15T10:50:20.704Z,25.65
2018-07-15T10:52:54.174Z,25.99
2018-07-15T10:55:27.556Z,25.79
2018-07-15T10:58:00.946Z,25.87
2018-07-15T11:00:34.334Z,25.98
2018-07-15T11:03:08.828Z,25.75
2018-07-15T11:05:42.187Z,25.79
2018-07-15T11:08:15.685Z,25.79
2018-07-15T11:10:49.090Z,25.70
2018-07-15T11:13:22.551Z,25.85
2018-07-15T11:15:55.911Z,26.13
2018-07-15T11:18:29.313Z,25.96
2018-07-15T11:21:02.740Z,26.34
2018-07-15T11:23:36.153Z,27.07
2018-07-15T11:26:09.580Z,27.53
2018-07-15T11:28:42.973Z,27.75
2018-07-15T11:31:16.355Z,27.83
2018-07-15T11:33:49.783Z,27.72
2018-07-15T11:36:23.147Z,27.40
2018-07-15T11:38:56.770Z,27.26
2018-07-15T11:41:30.158Z,27.21
2018-07-15T11:44:03.888Z,26.89
2018-07-15T11:46:37.357Z,26.69
2018-07-15T11:49:10.775Z,26.36
2018-07-15T11:51:44.461Z,26.48
2018-07-15T11:54:17.858Z,26.81
2018-07-15T11:56:51.206Z,27.02
2018-07-15T11:59:24.603Z,27.28
2018-07-15T12:01:57.980Z,27.40
2018-07-15T12:04:31.367Z,27.20
2018-07-15T12:07:04.856Z,27.10
2018-07-15T12:09:38.241Z,26.87
2018-07-15T12:12:11.636Z,26.71
2018-07-15T12:14:45.084Z,26.81
2018-07-15T12:17:18.476Z,26.69
2018-07-15T12:19:51.947Z,26.65
2018-07-15T12:22:25.369Z,26.68
2018-07-15T12:24:58.947Z,26.72
2018-07-15T12:27:32.314Z,26.60
2018-07-15T12:30:05.812Z,26.37
2018-07-15T12:32:39.315Z,26.16
2018-07-15T12:35:12.689Z,26.17
2018-07-15T12:37:46.080Z,26.18
2018-07-15T12:40:19.501Z,26.06
2018-07-15T12:42:52.871Z,26.31
2018-07-15T12:45:26.593Z,26.31
2018-07-15T12:48:00.048Z,26.14
2018-07-15T12:50:33.467Z,26.02
2018-07-15T12:53:07.103Z,25.90
2018-07-15T12:55:40.756Z,25.87
2018-07-15T12:58:14.135Z,26.15
2018-07-15T13:00:47.577Z,26.40
2018-07-15T13:03:20.966Z,26.57
2018-07-15T13:05:54.773Z,26.68
2018-07-15T13:08:28.191Z,26.69
2018-07-15T13:11:10.499Z,26.59
2018-07-15T13:13:43.908Z,26.65
2018-07-15T13:16:17.379Z,26.68
2018-07-15T13:18:50.734Z,26.71
2018-07-15T13:21:24.130Z,26.76
2018-07-15T13:23:57.490Z,26.82
2018-07-15T13:26:30.912Z,26.85
2018-07-15T13:29:04.279Z,26.79
2018-07-15T13:31:37.684Z,26.70
2018-07-15T13:34:11.036Z,26.86
2018-07-15T13:36:44.431Z,26.84
2018-07-15T13:39:17.841Z,26.74
2018-07-15T13:41:51.339Z,26.67
2018-07-15T13:44:24.741Z,26.68
2018-07-15T13:46:58.115Z,26.87
2018-07-15T13:49:31.457Z,27.35
2018-07-15T13:52:04.872Z,27.14
2018-07-15T13:54:38.307Z,27.03
2018-07-15T13:57:11.687Z,27.29
2018-07-15T13:59:45.056Z,27.58
2018-07-15T14:02:18.442Z,27.57
2018-07-15T14:04:51.853Z,27.71
2018-07-15T14:07:25.278Z,27.80
2018-07-15T14:09:58.674Z,27.45
2018-07-15T14:12:32.078Z,27.11
2018-07-15T14:15:05.667Z,26.77
2018-07-15T14:17:39.584Z,26.50
2018-07-15T14:20:13.482Z,26.29
2018-07-15T14:22:46.878Z,26.11
2018-07-15T14:25:20.370Z,26.08
2018-07-15T14:27:54.027Z,26.24
2018-07-15T14:30:27.686Z,26.43
2018-07-15T14:33:01.087Z,26.49
2018-07-15T14:35:34.667Z,26.63
2018-07-15T14:38:08.614Z,26.53
2018-07-15T14:40:42.020Z,26.59
2018-07-15T14:43:15.400Z,26.69
2018-07-15T14:45:48.806Z,26.60
2018-07-15T14:48:22.217Z,26.32
2018-07-15T14:50:55.697Z,26.28
2018-07-15T14:53:29.069Z,26.37
2018-07-15T14:56:02.506Z,26.48
2018-07-15T14:58:36.374Z,26.13
2018-07-15T15:01:10.300Z,26.16
2018-07-15T15:03:43.669Z,26.14
2018-07-15T15:06:17.060Z,26.04
2018-07-15T15:08:50.460Z,26.13
2018-07-15T15:11:23.899Z,26.21
2018-07-15T15:13:57.256Z,26.30
2018-07-15T15:16:30.682Z,26.48
2018-07-15T15:19:04.043Z,26.61
2018-07-15T15:21:37.423Z,26.54
2018-07-15T15:24:10.803Z,26.23
2018-07-15T15:26:44.190Z,26.10
2018-07-15T15:29:17.585Z,26.02
2018-07-15T15:31:50.986Z,26.05
2018-07-15T15:34:24.403Z,26.12
2018-07-15T15:36:57.790Z,26.25
2018-07-15T15:39:31.156Z,26.28
2018-07-15T15:42:04.652Z,26.35
2018-07-15T15:44:38.025Z,26.35
2018-07-15T15:47:11.488Z,26.37
2018-07-15T15:49:44.875Z,26.41
2018-07-15T15:52:18.274Z,26.49
2018-07-15T15:54:51.668Z,26.57
2018-07-15T15:57:25.081Z,26.62
2018-07-15T15:59:59.933Z,26.60
2018-07-15T16:02:33.356Z,26.47
2018-07-15T16:05:07.267Z,26.50
2018-07-15T16:07:40.716Z,26.49
2018-07-15T16:10:14.120Z,26.48
2018-07-15T16:12:47.512Z,26.51
2018-07-15T16:15:20.948Z,26.52
2018-07-15T16:17:54.353Z,26.57
2018-07-15T16:20:27.722Z,26.66
2018-07-15T16:23:01.123Z,26.69
2018-07-15T16:25:34.511Z,26.76
2018-07-15T16:28:07.919Z,26.80
2018-07-15T16:30:41.306Z,26.83
2018-07-15T16:33:14.701Z,26.82
2018-07-15T16:35:48.424Z,26.86
2018-07-15T16:38:22.103Z,26.91
2018-07-15T16:40:55.476Z,26.86
2018-07-15T16:43:28.883Z,26.73
2018-07-15T16:46:02.292Z,26.50
2018-07-15T16:48:35.674Z,26.38
2018-07-15T16:51:09.115Z,26.33
2018-07-15T16:53:42.559Z,26.33
2018-07-15T16:56:16.014Z,26.38
2018-07-15T16:58:49.364Z,26.48
2018-07-15T17:01:25.485Z,26.80
2018-07-15T17:03:58.851Z,27.22
2018-07-15T17:06:32.220Z,27.30
2018-07-15T17:09:06.333Z,27.23
2018-07-15T17:11:40.367Z,27.32
2018-07-15T17:14:13.784Z,27.50
2018-07-15T17:16:47.186Z,27.86
2018-07-15T17:19:20.588Z,28.02
2018-07-15T17:21:54.028Z,27.98
2018-07-15T17:24:27.421Z,27.68
2018-07-15T17:27:00.882Z,27.35
2018-07-15T17:29:34.280Z,27.10
2018-07-15T17:32:07.767Z,26.95
2018-07-15T17:34:41.155Z,26.81
2018-07-15T17:37:14.548Z,26.77
2018-07-15T17:39:47.954Z,26.69
2018-07-15T17:42:21.363Z,26.62
2018-07-15T17:44:54.776Z,26.62
2018-07-15T17:47:28.159Z,26.53
2018-07-15T17:50:01.582Z,26.46
2018-07-15T17:52:34.988Z,26.38
2018-07-15T17:55:09.034Z,26.28
2018-07-15T17:57:42.567Z,26.16
2018-07-15T18:00:17.343Z,26.07
2018-07-15T18:02:51.046Z,25.98
2018-07-15T18:05:24.611Z,25.89
2018-07-15T18:07:58.658Z,25.83
2018-07-15T18:10:32.749Z,25.73
2018-07-15T18:13:06.324Z,25.66
2018-07-15T18:15:39.776Z,25.60
2018-07-15T18:18:13.589Z,25.51
2018-07-15T18:20:48.103Z,25.38
2018-07-15T18:23:22.361Z,25.25
2018-07-15T18:25:56.087Z,25.13
2018-07-15T18:28:29.491Z,25.06
2018-07-15T18:31:02.856Z,25.01
2018-07-15T18:33:37.317Z,24.93
2018-07-15T18:36:12.308Z,24.85
2018-07-15T18:38:47.129Z,24.87
2018-07-15T18:41:20.549Z,24.80
2018-07-15T18:43:54.213Z,24.71
2018-07-15T18:46:27.671Z,24.66
2018-07-15T18:49:01.689Z,24.58
2018-07-15T18:51:37.986Z,24.47
2018-07-15T18:54:11.438Z,24.38
2018-07-15T18:56:44.883Z,24.33
2018-07-15T18:59:19.122Z,24.32
2018-07-15T19:01:53.075Z,24.27
2018-07-15T19:04:26.708Z,24.20
2018-07-15T19:07:00.116Z,24.10
2018-07-15T19:09:33.552Z,23.95
2018-07-15T19:12:07.009Z,23.87
2018-07-15T19:14:41.090Z,23.77
2018-07-15T19:17:16.875Z,23.67
2018-07-15T19:19:50.319Z,23.57
2018-07-15T19:22:24.217Z,23.45
2018-07-15T19:24:57.866Z,23.28
2018-07-15T19:27:31.583Z,23.16
2018-07-15T19:30:06.600Z,23.04
2018-07-15T19:32:40.176Z,22.94
2018-07-15T19:35:14.544Z,22.76
2018-07-15T19:37:49.857Z,22.61
2018-07-15T19:40:23.583Z,22.50
2018-07-15T19:42:57.668Z,22.37
2018-07-15T19:45:31.283Z,22.22
2018-07-15T19:48:04.757Z,22.12
2018-07-15T19:50:38.205Z,22.01
2018-07-15T19:53:11.679Z,21.90
2018-07-15T19:55:51.404Z,21.77
2018-07-15T19:58:24.797Z,21.65
2018-07-15T20:00:58.334Z,21.47
2018-07-15T20:03:31.790Z,21.33
2018-07-15T20:06:05.510Z,21.25
2018-07-15T20:08:39.063Z,21.13
2018-07-15T20:11:12.500Z,21.00
2018-07-15T20:13:45.984Z,20.88
2018-07-15T20:16:19.688Z,20.80
2018-07-15T20:18:53.148Z,20.75
2018-07-15T20:21:26.640Z,20.65
2018-07-15T20:24:00.135Z,20.59
2018-07-15T20:26:33.616Z,20.49
2018-07-15T20:29:07.109Z,20.40
2018-07-15T20:31:40.531Z,20.31
2018-07-15T20:34:14.010Z,20.24
2018-07-15T20:36:47.375Z,20.14
2018-07-15T20:39:20.819Z,20.01
2018-07-15T20:41:54.207Z,19.97
2018-07-15T20:44:27.731Z,19.89
2018-07-15T20:47:01.227Z,19.82
2018-07-15T20:49:34.792Z,19.75
2018-07-15T20:52:08.310Z,19.67
2018-07-15T20:54:41.733Z,19.55
2018-07-15T20:57:15.270Z,19.44
2018-07-15T20:59:48.677Z,19.35
2018-07-15T21:02:22.153Z,19.29
2018-07-15T21:04:55.607Z,19.24
2018-07-15T21:07:29.012Z,19.16
2018-07-15T21:10:02.438Z,19.10
2018-07-15T21:12:35.844Z,18.99
2018-07-15T21:15:09.311Z,18.92
2018-07-15T21:17:42.737Z,18.85
2018-07-15T21:20:16.320Z,18.79
2018-07-15T21:22:49.708Z,18.70
2018-07-15T21:25:23.160Z,18.61
2018-07-15T21:27:56.572Z,18.54
2018-07-15T21:30:30.021Z,18.46
2018-07-15T21:33:03.411Z,18.37
2018-07-15T21:35:36.843Z,18.35
2018-07-15T21:38:10.235Z,18.31
2018-07-15T21:40:43.625Z,18.29
2018-07-15T21:43:16.991Z,18.20
2018-07-15T21:45:50.391Z,18.13
2018-07-15T21:48:23.793Z,18.05
2018-07-15T21:50:57.203Z,18.01
2018-07-15T21:53:30.622Z,17.96
2018-07-15T21:56:04.072Z,17.87
2018-07-15T21:58:37.488Z,17.77
2018-07-15T22:01:10.923Z,17.72
2018-07-15T22:03:44.347Z,17.63
2018-07-15T22:06:29.005Z,17.57
2018-07-15T22:09:13.583Z,17.55
2018-07-15T22:11:46.981Z,17.47
2018-07-15T22:14:20.658Z,17.43
2018-07-15T22:16:54.144Z,17.35
2018-07-15T22:19:27.558Z,17.27
2018-07-15T22:22:00.955Z,17.21
2018-07-15T22:24:34.333Z,17.20
2018-07-15T22:27:07.832Z,17.11
2018-07-15T22:29:41.204Z,17.05
2018-07-15T22:32:14.768Z,17.00
2018-07-15T22:34:48.182Z,17.04
2018-07-15T22:37:21.572Z,16.95
2018-07-15T22:39:54.929Z,16.89
2018-07-15T22:42:28.354Z,16.93
2018-07-15T22:45:01.748Z,16.89
2018-07-15T22:47:35.274Z,17.01
2018-07-15T22:50:08.692Z,17.01
2018-07-15T22:52:42.096Z,16.99
2018-07-15T22:55:15.491Z,16.95
2018-07-15T22:57:48.917Z,16.89
2018-07-15T23:00:22.289Z,16.82
2018-07-15T23:02:55.707Z,16.79
2018-07-15T23:05:45.549Z,16.74
2018-07-15T23:08:18.948Z,16.67
2018-07-15T23:10:52.406Z,16.63
2018-07-15T23:13:25.796Z,16.57
2018-07-15T23:15:59.172Z,16.47
2018-07-15T23:18:32.557Z,16.42
2018-07-15T23:21:05.989Z,16.40
2018-07-15T23:23:39.340Z,16.35
2018-07-15T23:26:12.707Z,16.35
2018-07-15T23:28:46.088Z,16.32
2018-07-15T23:31:19.478Z,16.28
2018-07-15T23:33:52.887Z,16.22
2018-07-15T23:36:26.291Z,16.20
2018-07-15T23:38:59.694Z,16.19
2018-07-15T23:41:33.088Z,16.17
2018-07-15T23:44:06.537Z,16.15
2018-07-15T23:46:39.909Z,16.11
2018-07-15T23:49:13.282Z,16.09
2018-07-15T23:51:46.689Z,16.07
2018-07-15T23:54:20.065Z,16.03
2018-07-15T23:56:53.492Z,16.01
2018-07-15T23:59:26.890Z,15.92
